sensor_id;sensor_type;location;lat;lon;timestamp;P1;durP1;ratioP1;P2;durP2;ratioP2
54408;SDS011;40315;48.620;9.828;2023-08-17T00:00:25;4.25;;;3.10;;
54408;SDS011;40315;48.620;9.828;2023-08-17T00:02:52;4.88;;;2.95;;
54408;SDS011;40315;48.620;9.828;2023-08-17T00:05:22;6.25;;;3.55;;
54408;SDS011;40315;48.620;9.828;2023-08-17T00:07:50;3.10;;;2.80;;
54408;SDS011;40315;48.620;9.828;2023-08-17T00:10:17;3.28;;;2.72;;
54408;SDS011;40315;48.620;9.828;2023-08-17T00:12:46;6.20;;;2.78;;
54408;SDS011;40315;48.620;9.828;2023-08-17T00:15:16;4.35;;;2.80;;
54408;SDS011;40315;48.620;9.828;2023-08-17T00:17:45;5.05;;;3.10;;
54408;SDS011;40315;48.620;9.828;2023-08-17T00:20:11;4.72;;;3.20;;
54408;SDS011;40315;48.620;9.828;2023-08-17T00:22:43;5.72;;;3.08;;
54408;SDS011;40315;48.620;9.828;2023-08-17T00:25:09;4.88;;;3.63;;
54408;SDS011;40315;48.620;9.828;2023-08-17T00:27:37;4.85;;;3.22;;
54408;SDS011;40315;48.620;9.828;2023-08-17T00:30:04;5.13;;;3.40;;
54408;SDS011;40315;48.620;9.828;2023-08-17T00:32:32;4.60;;;2.97;;
54408;SDS011;40315;48.620;9.828;2023-08-17T00:34:59;3.75;;;3.35;;
54408;SDS011;40315;48.620;9.828;2023-08-17T00:37:27;4.22;;;3.20;;
54408;SDS011;40315;48.620;9.828;2023-08-17T00:39:55;4.00;;;3.20;;
54408;SDS011;40315;48.620;9.828;2023-08-17T00:42:23;5.65;;;4.10;;
54408;SDS011;40315;48.620;9.828;2023-08-17T00:44:50;4.55;;;3.40;;
54408;SDS011;40315;48.620;9.828;2023-08-17T00:47:19;4.68;;;3.65;;
54408;SDS011;40315;48.620;9.828;2023-08-17T00:49:46;5.80;;;3.63;;
54408;SDS011;40315;48.620;9.828;2023-08-17T00:52:15;4.28;;;3.33;;
54408;SDS011;40315;48.620;9.828;2023-08-17T00:54:42;4.78;;;3.72;;
54408;SDS011;40315;48.620;9.828;2023-08-17T00:57:11;3.90;;;3.60;;
54408;SDS011;40315;48.620;9.828;2023-08-17T00:59:39;4.00;;;3.30;;
54408;SDS011;40315;48.620;9.828;2023-08-17T01:02:08;6.13;;;3.47;;
54408;SDS011;40315;48.620;9.828;2023-08-17T01:04:36;4.18;;;3.45;;
54408;SDS011;40315;48.620;9.828;2023-08-17T01:07:05;4.38;;;3.30;;
54408;SDS011;40315;48.620;9.828;2023-08-17T01:09:33;4.38;;;3.42;;
54408;SDS011;40315;48.620;9.828;2023-08-17T01:12:04;5.13;;;3.42;;
54408;SDS011;40315;48.620;9.828;2023-08-17T01:14:43;3.58;;;3.17;;
54408;SDS011;40315;48.620;9.828;2023-08-17T01:17:22;3.80;;;3.40;;
54408;SDS011;40315;48.620;9.828;2023-08-17T01:19:53;5.53;;;3.67;;
54408;SDS011;40315;48.620;9.828;2023-08-17T01:22:22;3.80;;;3.15;;
54408;SDS011;40315;48.620;9.828;2023-08-17T01:24:55;4.35;;;3.47;;
54408;SDS011;40315;48.620;9.828;2023-08-17T01:27:23;6.88;;;3.28;;
54408;SDS011;40315;48.620;9.828;2023-08-17T01:29:50;3.50;;;3.20;;
54408;SDS011;40315;48.620;9.828;2023-08-17T01:32:22;4.03;;;3.25;;
54408;SDS011;40315;48.620;9.828;2023-08-17T01:34:54;5.13;;;3.60;;
54408;SDS011;40315;48.620;9.828;2023-08-17T01:37:28;3.58;;;3.17;;
54408;SDS011;40315;48.620;9.828;2023-08-17T01:40:01;4.05;;;3.03;;
54408;SDS011;40315;48.620;9.828;2023-08-17T01:42:30;4.35;;;3.00;;
54408;SDS011;40315;48.620;9.828;2023-08-17T01:44:59;5.45;;;3.38;;
54408;SDS011;40315;48.620;9.828;2023-08-17T01:47:26;4.10;;;3.60;;
54408;SDS011;40315;48.620;9.828;2023-08-17T01:53:15;4.22;;;3.30;;
54408;SDS011;40315;48.620;9.828;2023-08-17T01:55:43;4.68;;;3.40;;
54408;SDS011;40315;48.620;9.828;2023-08-17T01:58:13;4.28;;;3.70;;
54408;SDS011;40315;48.620;9.828;2023-08-17T02:00:40;4.55;;;3.22;;
54408;SDS011;40315;48.620;9.828;2023-08-17T02:03:07;4.38;;;3.25;;
54408;SDS011;40315;48.620;9.828;2023-08-17T02:05:34;3.33;;;2.90;;
54408;SDS011;40315;48.620;9.828;2023-08-17T02:08:01;4.22;;;2.90;;
54408;SDS011;40315;48.620;9.828;2023-08-17T02:10:28;3.78;;;3.30;;
54408;SDS011;40315;48.620;9.828;2023-08-17T02:12:56;3.47;;;3.15;;
54408;SDS011;40315;48.620;9.828;2023-08-17T02:15:23;3.83;;;3.42;;
54408;SDS011;40315;48.620;9.828;2023-08-17T02:17:50;5.15;;;3.33;;
54408;SDS011;40315;48.620;9.828;2023-08-17T02:20:17;5.97;;;3.30;;
54408;SDS011;40315;48.620;9.828;2023-08-17T02:22:44;5.13;;;3.20;;
54408;SDS011;40315;48.620;9.828;2023-08-17T02:25:13;5.32;;;3.38;;
54408;SDS011;40315;48.620;9.828;2023-08-17T02:27:40;5.40;;;3.25;;
54408;SDS011;40315;48.620;9.828;2023-08-17T02:30:09;3.70;;;3.38;;
54408;SDS011;40315;48.620;9.828;2023-08-17T02:32:37;5.15;;;3.38;;
54408;SDS011;40315;48.620;9.828;2023-08-17T02:35:04;3.88;;;3.05;;
54408;SDS011;40315;48.620;9.828;2023-08-17T02:37:32;4.72;;;3.38;;
54408;SDS011;40315;48.620;9.828;2023-08-17T02:40:01;3.22;;;2.97;;
54408;SDS011;40315;48.620;9.828;2023-08-17T02:42:29;3.88;;;3.47;;
54408;SDS011;40315;48.620;9.828;2023-08-17T02:44:56;8.40;;;3.47;;
54408;SDS011;40315;48.620;9.828;2023-08-17T02:47:24;3.90;;;3.60;;
54408;SDS011;40315;48.620;9.828;2023-08-17T02:49:52;3.58;;;3.28;;
54408;SDS011;40315;48.620;9.828;2023-08-17T02:52:19;4.68;;;3.75;;
54408;SDS011;40315;48.620;9.828;2023-08-17T02:54:46;5.43;;;3.65;;
54408;SDS011;40315;48.620;9.828;2023-08-17T02:57:12;4.63;;;4.13;;
54408;SDS011;40315;48.620;9.828;2023-08-17T02:59:39;4.10;;;3.70;;
54408;SDS011;40315;48.620;9.828;2023-08-17T03:02:06;5.72;;;3.92;;
54408;SDS011;40315;48.620;9.828;2023-08-17T03:04:35;4.95;;;3.50;;
54408;SDS011;40315;48.620;9.828;2023-08-17T03:07:02;5.18;;;3.78;;
54408;SDS011;40315;48.620;9.828;2023-08-17T03:09:29;4.35;;;3.60;;
54408;SDS011;40315;48.620;9.828;2023-08-17T03:11:56;4.25;;;3.30;;
54408;SDS011;40315;48.620;9.828;2023-08-17T03:14:25;4.35;;;3.20;;
54408;SDS011;40315;48.620;9.828;2023-08-17T03:16:52;4.60;;;3.35;;
54408;SDS011;40315;48.620;9.828;2023-08-17T03:19:21;4.18;;;3.38;;
54408;SDS011;40315;48.620;9.828;2023-08-17T03:21:50;6.72;;;3.42;;
54408;SDS011;40315;48.620;9.828;2023-08-17T03:24:17;3.30;;;3.00;;
54408;SDS011;40315;48.620;9.828;2023-08-17T03:26:47;4.43;;;3.45;;
54408;SDS011;40315;48.620;9.828;2023-08-17T03:29:14;3.80;;;3.35;;
54408;SDS011;40315;48.620;9.828;2023-08-17T03:31:41;4.82;;;3.63;;
54408;SDS011;40315;48.620;9.828;2023-08-17T03:34:09;5.25;;;3.45;;
54408;SDS011;40315;48.620;9.828;2023-08-17T03:36:36;3.88;;;3.30;;
54408;SDS011;40315;48.620;9.828;2023-08-17T03:39:07;4.30;;;3.05;;
54408;SDS011;40315;48.620;9.828;2023-08-17T03:41:34;4.20;;;3.40;;
54408;SDS011;40315;48.620;9.828;2023-08-17T03:44:02;4.25;;;3.30;;
54408;SDS011;40315;48.620;9.828;2023-08-17T03:46:31;4.07;;;3.28;;
54408;SDS011;40315;48.620;9.828;2023-08-17T03:49:03;5.00;;;3.55;;
54408;SDS011;40315;48.620;9.828;2023-08-17T03:51:30;5.28;;;3.80;;
54408;SDS011;40315;48.620;9.828;2023-08-17T03:54:00;3.88;;;3.58;;
54408;SDS011;40315;48.620;9.828;2023-08-17T03:56:28;6.00;;;4.30;;
54408;SDS011;40315;48.620;9.828;2023-08-17T03:58:55;4.55;;;4.13;;
54408;SDS011;40315;48.620;9.828;2023-08-17T04:01:22;5.07;;;3.72;;
54408;SDS011;40315;48.620;9.828;2023-08-17T04:03:49;5.55;;;3.58;;
54408;SDS011;40315;48.620;9.828;2023-08-17T04:06:16;4.70;;;3.70;;
54408;SDS011;40315;48.620;9.828;2023-08-17T04:08:43;3.92;;;3.50;;
54408;SDS011;40315;48.620;9.828;2023-08-17T04:11:13;5.18;;;3.90;;
54408;SDS011;40315;48.620;9.828;2023-08-17T04:13:41;4.38;;;3.55;;
54408;SDS011;40315;48.620;9.828;2023-08-17T04:16:11;5.47;;;3.83;;
54408;SDS011;40315;48.620;9.828;2023-08-17T04:18:38;4.10;;;3.45;;
54408;SDS011;40315;48.620;9.828;2023-08-17T04:21:05;4.38;;;3.60;;
54408;SDS011;40315;48.620;9.828;2023-08-17T04:23:32;4.22;;;3.70;;
54408;SDS011;40315;48.620;9.828;2023-08-17T04:26:01;4.72;;;3.70;;
54408;SDS011;40315;48.620;9.828;2023-08-17T04:28:28;5.00;;;3.53;;
54408;SDS011;40315;48.620;9.828;2023-08-17T04:30:56;3.35;;;3.00;;
54408;SDS011;40315;48.620;9.828;2023-08-17T04:33:27;3.78;;;3.33;;
54408;SDS011;40315;48.620;9.828;2023-08-17T04:35:54;5.15;;;3.92;;
54408;SDS011;40315;48.620;9.828;2023-08-17T04:38:21;6.80;;;4.00;;
54408;SDS011;40315;48.620;9.828;2023-08-17T04:40:48;4.13;;;3.70;;
54408;SDS011;40315;48.620;9.828;2023-08-17T04:43:15;5.53;;;3.88;;
54408;SDS011;40315;48.620;9.828;2023-08-17T04:45:42;4.63;;;3.78;;
54408;SDS011;40315;48.620;9.828;2023-08-17T04:48:14;4.10;;;3.58;;
54408;SDS011;40315;48.620;9.828;2023-08-17T04:50:45;4.45;;;3.50;;
54408;SDS011;40315;48.620;9.828;2023-08-17T04:53:12;5.30;;;3.28;;
54408;SDS011;40315;48.620;9.828;2023-08-17T04:55:42;4.53;;;3.65;;
54408;SDS011;40315;48.620;9.828;2023-08-17T04:58:09;4.40;;;3.70;;
54408;SDS011;40315;48.620;9.828;2023-08-17T05:00:38;7.85;;;4.10;;
54408;SDS011;40315;48.620;9.828;2023-08-17T05:03:06;4.63;;;3.97;;
54408;SDS011;40315;48.620;9.828;2023-08-17T05:05:40;4.32;;;3.75;;
54408;SDS011;40315;48.620;9.828;2023-08-17T05:08:09;7.05;;;4.45;;
54408;SDS011;40315;48.620;9.828;2023-08-17T05:10:39;4.97;;;4.00;;
54408;SDS011;40315;48.620;9.828;2023-08-17T05:13:06;4.80;;;3.75;;
54408;SDS011;40315;48.620;9.828;2023-08-17T05:15:33;3.50;;;3.20;;
54408;SDS011;40315;48.620;9.828;2023-08-17T05:18:05;5.15;;;3.15;;
54408;SDS011;40315;48.620;9.828;2023-08-17T05:20:34;4.75;;;4.00;;
54408;SDS011;40315;48.620;9.828;2023-08-17T05:23:04;4.75;;;3.80;;
54408;SDS011;40315;48.620;9.828;2023-08-17T05:25:31;6.05;;;3.75;;
54408;SDS011;40315;48.620;9.828;2023-08-17T05:27:58;4.40;;;3.95;;
54408;SDS011;40315;48.620;9.828;2023-08-17T05:30:25;4.13;;;3.72;;
54408;SDS011;40315;48.620;9.828;2023-08-17T05:32:55;3.30;;;3.00;;
54408;SDS011;40315;48.620;9.828;2023-08-17T05:35:22;3.45;;;3.10;;
54408;SDS011;40315;48.620;9.828;2023-08-17T05:37:51;3.30;;;3.00;;
54408;SDS011;40315;48.620;9.828;2023-08-17T05:40:20;3.92;;;3.42;;
54408;SDS011;40315;48.620;9.828;2023-08-17T05:42:46;3.67;;;3.17;;
54408;SDS011;40315;48.620;9.828;2023-08-17T05:45:16;2.92;;;2.65;;
54408;SDS011;40315;48.620;9.828;2023-08-17T05:47:43;5.00;;;2.90;;
54408;SDS011;40315;48.620;9.828;2023-08-17T05:50:13;3.55;;;2.92;;
54408;SDS011;40315;48.620;9.828;2023-08-17T05:52:43;5.32;;;3.50;;
54408;SDS011;40315;48.620;9.828;2023-08-17T05:55:09;4.63;;;3.17;;
54408;SDS011;40315;48.620;9.828;2023-08-17T05:57:38;4.35;;;3.40;;
54408;SDS011;40315;48.620;9.828;2023-08-17T06:00:05;3.80;;;3.30;;
54408;SDS011;40315;48.620;9.828;2023-08-17T06:02:37;3.67;;;3.00;;
54408;SDS011;40315;48.620;9.828;2023-08-17T06:05:04;3.47;;;3.17;;
54408;SDS011;40315;48.620;9.828;2023-08-17T06:07:34;4.93;;;3.00;;
54408;SDS011;40315;48.620;9.828;2023-08-17T06:10:03;4.00;;;3.03;;
54408;SDS011;40315;48.620;9.828;2023-08-17T06:12:31;3.97;;;3.10;;
54408;SDS011;40315;48.620;9.828;2023-08-17T06:15:03;4.90;;;3.40;;
54408;SDS011;40315;48.620;9.828;2023-08-17T06:17:30;4.18;;;3.50;;
54408;SDS011;40315;48.620;9.828;2023-08-17T06:19:57;3.72;;;3.20;;
54408;SDS011;40315;48.620;9.828;2023-08-17T06:22:24;5.40;;;4.10;;
54408;SDS011;40315;48.620;9.828;2023-08-17T06:24:53;6.78;;;3.80;;
54408;SDS011;40315;48.620;9.828;2023-08-17T06:27:20;4.32;;;3.53;;
54408;SDS011;40315;48.620;9.828;2023-08-17T06:29:47;3.90;;;3.20;;
54408;SDS011;40315;48.620;9.828;2023-08-17T06:32:15;4.50;;;3.78;;
54408;SDS011;40315;48.620;9.828;2023-08-17T06:34:45;5.90;;;3.40;;
54408;SDS011;40315;48.620;9.828;2023-08-17T06:37:11;3.78;;;3.40;;
54408;SDS011;40315;48.620;9.828;2023-08-17T06:39:38;5.97;;;3.50;;
54408;SDS011;40315;48.620;9.828;2023-08-17T06:42:05;5.65;;;3.25;;
54408;SDS011;40315;48.620;9.828;2023-08-17T06:44:32;5.35;;;3.15;;
54408;SDS011;40315;48.620;9.828;2023-08-17T06:47:02;4.57;;;3.55;;
54408;SDS011;40315;48.620;9.828;2023-08-17T06:49:30;4.03;;;3.28;;
54408;SDS011;40315;48.620;9.828;2023-08-17T06:51:57;4.13;;;3.22;;
54408;SDS011;40315;48.620;9.828;2023-08-17T06:54:24;4.20;;;3.80;;
54408;SDS011;40315;48.620;9.828;2023-08-17T06:56:53;5.30;;;3.90;;
54408;SDS011;40315;48.620;9.828;2023-08-17T06:59:20;6.28;;;3.67;;
54408;SDS011;40315;48.620;9.828;2023-08-17T07:01:47;4.18;;;3.58;;
54408;SDS011;40315;48.620;9.828;2023-08-17T07:04:16;4.72;;;3.50;;
54408;SDS011;40315;48.620;9.828;2023-08-17T07:06:45;3.38;;;3.17;;
54408;SDS011;40315;48.620;9.828;2023-08-17T07:09:11;3.88;;;3.50;;
54408;SDS011;40315;48.620;9.828;2023-08-17T07:11:41;3.38;;;3.08;;
54408;SDS011;40315;48.620;9.828;2023-08-17T07:14:08;3.83;;;3.42;;
54408;SDS011;40315;48.620;9.828;2023-08-17T07:16:37;4.18;;;3.78;;
54408;SDS011;40315;48.620;9.828;2023-08-17T07:19:06;3.95;;;3.55;;
54408;SDS011;40315;48.620;9.828;2023-08-17T07:21:35;5.57;;;3.53;;
54408;SDS011;40315;48.620;9.828;2023-08-17T07:24:12;3.67;;;3.38;;
54408;SDS011;40315;48.620;9.828;2023-08-17T07:26:41;4.68;;;4.28;;
54408;SDS011;40315;48.620;9.828;2023-08-17T07:29:10;6.45;;;4.00;;
54408;SDS011;40315;48.620;9.828;2023-08-17T07:31:37;4.30;;;3.90;;
54408;SDS011;40315;48.620;9.828;2023-08-17T07:34:06;4.72;;;3.90;;
54408;SDS011;40315;48.620;9.828;2023-08-17T07:36:33;5.05;;;4.25;;
54408;SDS011;40315;48.620;9.828;2023-08-17T07:39:03;4.50;;;3.90;;
54408;SDS011;40315;48.620;9.828;2023-08-17T07:41:32;4.32;;;3.92;;
54408;SDS011;40315;48.620;9.828;2023-08-17T07:44:01;5.82;;;5.07;;
54408;SDS011;40315;48.620;9.828;2023-08-17T07:46:28;6.43;;;4.70;;
54408;SDS011;40315;48.620;9.828;2023-08-17T07:48:55;5.45;;;4.90;;
54408;SDS011;40315;48.620;9.828;2023-08-17T07:51:22;6.60;;;5.70;;
54408;SDS011;40315;48.620;9.828;2023-08-17T07:53:49;5.35;;;4.85;;
54408;SDS011;40315;48.620;9.828;2023-08-17T07:56:16;5.15;;;4.65;;
54408;SDS011;40315;48.620;9.828;2023-08-17T07:58:44;5.50;;;5.00;;
54408;SDS011;40315;48.620;9.828;2023-08-17T08:01:11;7.22;;;6.18;;
54408;SDS011;40315;48.620;9.828;2023-08-17T08:03:40;6.93;;;6.30;;
54408;SDS011;40315;48.620;9.828;2023-08-17T08:06:08;6.80;;;6.05;;
54408;SDS011;40315;48.620;9.828;2023-08-17T08:08:34;6.47;;;5.95;;
54408;SDS011;40315;48.620;9.828;2023-08-17T08:11:01;7.65;;;6.95;;
54408;SDS011;40315;48.620;9.828;2023-08-17T08:13:31;7.63;;;6.97;;
54408;SDS011;40315;48.620;9.828;2023-08-17T08:16:02;6.72;;;6.10;;
54408;SDS011;40315;48.620;9.828;2023-08-17T08:18:32;9.65;;;6.25;;
54408;SDS011;40315;48.620;9.828;2023-08-17T08:20:59;6.53;;;5.93;;
54408;SDS011;40315;48.620;9.828;2023-08-17T08:23:26;9.60;;;6.45;;
54408;SDS011;40315;48.620;9.828;2023-08-17T08:25:52;7.60;;;6.80;;
54408;SDS011;40315;48.620;9.828;2023-08-17T08:28:19;6.38;;;5.43;;
54408;SDS011;40315;48.620;9.828;2023-08-17T08:30:49;5.70;;;5.15;;
54408;SDS011;40315;48.620;9.828;2023-08-17T08:33:17;6.40;;;5.90;;
54408;SDS011;40315;48.620;9.828;2023-08-17T08:35:44;6.35;;;5.63;;
54408;SDS011;40315;48.620;9.828;2023-08-17T08:38:14;6.57;;;5.97;;
54408;SDS011;40315;48.620;9.828;2023-08-17T08:40:41;6.10;;;5.20;;
54408;SDS011;40315;48.620;9.828;2023-08-17T08:43:10;6.10;;;5.60;;
54408;SDS011;40315;48.620;9.828;2023-08-17T08:45:37;6.05;;;5.47;;
54408;SDS011;40315;48.620;9.828;2023-08-17T08:48:11;6.95;;;5.55;;
54408;SDS011;40315;48.620;9.828;2023-08-17T08:50:41;6.25;;;5.65;;
54408;SDS011;40315;48.620;9.828;2023-08-17T08:53:10;6.32;;;5.47;;
54408;SDS011;40315;48.620;9.828;2023-08-17T08:55:41;6.40;;;5.35;;
54408;SDS011;40315;48.620;9.828;2023-08-17T08:58:13;5.38;;;4.88;;
54408;SDS011;40315;48.620;9.828;2023-08-17T09:00:42;6.35;;;5.75;;
54408;SDS011;40315;48.620;9.828;2023-08-17T09:03:11;6.15;;;5.55;;
54408;SDS011;40315;48.620;9.828;2023-08-17T09:05:41;6.35;;;5.75;;
54408;SDS011;40315;48.620;9.828;2023-08-17T09:08:10;6.38;;;5.80;;
54408;SDS011;40315;48.620;9.828;2023-08-17T09:10:39;5.93;;;5.43;;
54408;SDS011;40315;48.620;9.828;2023-08-17T09:13:09;6.22;;;5.63;;
54408;SDS011;40315;48.620;9.828;2023-08-17T09:15:36;5.72;;;5.18;;
54408;SDS011;40315;48.620;9.828;2023-08-17T09:18:05;5.57;;;5.07;;
54408;SDS011;40315;48.620;9.828;2023-08-17T09:20:38;6.10;;;5.50;;
54408;SDS011;40315;48.620;9.828;2023-08-17T09:23:10;6.15;;;5.57;;
54408;SDS011;40315;48.620;9.828;2023-08-17T09:25:39;7.80;;;5.95;;
54408;SDS011;40315;48.620;9.828;2023-08-17T09:28:07;6.30;;;5.80;;
54408;SDS011;40315;48.620;9.828;2023-08-17T09:30:51;6.22;;;5.63;;
54408;SDS011;40315;48.620;9.828;2023-08-17T09:33:26;6.47;;;5.88;;
54408;SDS011;40315;48.620;9.828;2023-08-17T09:35:56;6.32;;;5.82;;
54408;SDS011;40315;48.620;9.828;2023-08-17T09:38:24;6.00;;;5.50;;
54408;SDS011;40315;48.620;9.828;2023-08-17T09:40:54;5.68;;;5.18;;
54408;SDS011;40315;48.620;9.828;2023-08-17T09:43:25;5.70;;;5.15;;
54408;SDS011;40315;48.620;9.828;2023-08-17T09:45:54;6.00;;;5.50;;
54408;SDS011;40315;48.620;9.828;2023-08-17T09:48:21;6.15;;;5.65;;
54408;SDS011;40315;48.620;9.828;2023-08-17T09:50:48;5.57;;;4.97;;
54408;SDS011;40315;48.620;9.828;2023-08-17T09:53:16;6.07;;;5.47;;
54408;SDS011;40315;48.620;9.828;2023-08-17T09:55:46;5.70;;;5.25;;
54408;SDS011;40315;48.620;9.828;2023-08-17T09:58:14;6.20;;;5.60;;
54408;SDS011;40315;48.620;9.828;2023-08-17T10:00:43;6.38;;;5.78;;
54408;SDS011;40315;48.620;9.828;2023-08-17T10:03:12;5.68;;;5.20;;
54408;SDS011;40315;48.620;9.828;2023-08-17T10:05:42;6.55;;;5.10;;
54408;SDS011;40315;48.620;9.828;2023-08-17T10:08:10;6.15;;;5.65;;
54408;SDS011;40315;48.620;9.828;2023-08-17T10:10:44;5.57;;;5.07;;
54408;SDS011;40315;48.620;9.828;2023-08-17T10:13:12;5.93;;;5.32;;
54408;SDS011;40315;48.620;9.828;2023-08-17T10:15:48;6.35;;;5.65;;
54408;SDS011;40315;48.620;9.828;2023-08-17T10:18:22;5.70;;;5.20;;
54408;SDS011;40315;48.620;9.828;2023-08-17T10:21:00;5.88;;;5.38;;
54408;SDS011;40315;48.620;9.828;2023-08-17T10:23:30;5.97;;;5.32;;
54408;SDS011;40315;48.620;9.828;2023-08-17T10:25:59;5.72;;;5.18;;
54408;SDS011;40315;48.620;9.828;2023-08-17T10:28:30;5.93;;;5.32;;
54408;SDS011;40315;48.620;9.828;2023-08-17T10:30:58;6.00;;;5.40;;
54408;SDS011;40315;48.620;9.828;2023-08-17T10:33:26;8.05;;;5.13;;
54408;SDS011;40315;48.620;9.828;2023-08-17T10:35:55;5.80;;;5.22;;
54408;SDS011;40315;48.620;9.828;2023-08-17T10:38:23;7.05;;;5.57;;
54408;SDS011;40315;48.620;9.828;2023-08-17T10:41:07;5.90;;;5.30;;
54408;SDS011;40315;48.620;9.828;2023-08-17T10:46:32;5.88;;;5.05;;
54408;SDS011;40315;48.620;9.828;2023-08-17T10:49:03;5.95;;;5.35;;
54408;SDS011;40315;48.620;9.828;2023-08-17T10:51:31;6.13;;;5.50;;
54408;SDS011;40315;48.620;9.828;2023-08-17T10:54:00;5.97;;;5.38;;
54408;SDS011;40315;48.620;9.828;2023-08-17T10:56:30;6.07;;;5.47;;
54408;SDS011;40315;48.620;9.828;2023-08-17T10:58:59;5.80;;;5.20;;
54408;SDS011;40315;48.620;9.828;2023-08-17T11:01:36;7.07;;;5.45;;
54408;SDS011;40315;48.620;9.828;2023-08-17T11:04:11;6.65;;;5.10;;
54408;SDS011;40315;48.620;9.828;2023-08-17T11:06:39;6.25;;;5.70;;
54408;SDS011;40315;48.620;9.828;2023-08-17T11:09:06;5.85;;;5.35;;
54408;SDS011;40315;48.620;9.828;2023-08-17T11:11:35;6.60;;;5.63;;
54408;SDS011;40315;48.620;9.828;2023-08-17T11:14:04;7.47;;;5.72;;
54408;SDS011;40315;48.620;9.828;2023-08-17T11:16:31;6.07;;;5.47;;
54408;SDS011;40315;48.620;9.828;2023-08-17T11:18:59;5.88;;;5.25;;
54408;SDS011;40315;48.620;9.828;2023-08-17T11:21:26;6.20;;;5.63;;
54408;SDS011;40315;48.620;9.828;2023-08-17T11:23:56;7.57;;;5.93;;
54408;SDS011;40315;48.620;9.828;2023-08-17T11:26:24;6.72;;;5.82;;
54408;SDS011;40315;48.620;9.828;2023-08-17T11:28:52;8.20;;;5.45;;
54408;SDS011;40315;48.620;9.828;2023-08-17T11:31:19;6.53;;;5.93;;
54408;SDS011;40315;48.620;9.828;2023-08-17T11:33:46;6.68;;;5.63;;
54408;SDS011;40315;48.620;9.828;2023-08-17T11:36:13;6.05;;;5.50;;
54408;SDS011;40315;48.620;9.828;2023-08-17T11:38:41;6.10;;;5.47;;
54408;SDS011;40315;48.620;9.828;2023-08-17T11:41:11;6.50;;;5.90;;
54408;SDS011;40315;48.620;9.828;2023-08-17T11:43:41;5.97;;;5.47;;
54408;SDS011;40315;48.620;9.828;2023-08-17T11:46:11;6.95;;;5.70;;
54408;SDS011;40315;48.620;9.828;2023-08-17T11:48:38;6.30;;;5.80;;
54408;SDS011;40315;48.620;9.828;2023-08-17T11:51:05;8.77;;;6.20;;
54408;SDS011;40315;48.620;9.828;2023-08-17T11:53:34;6.65;;;5.90;;
54408;SDS011;40315;48.620;9.828;2023-08-17T11:56:04;6.70;;;5.90;;
54408;SDS011;40315;48.620;9.828;2023-08-17T11:58:40;6.50;;;5.95;;
54408;SDS011;40315;48.620;9.828;2023-08-17T12:01:08;6.22;;;5.63;;
54408;SDS011;40315;48.620;9.828;2023-08-17T12:03:38;6.32;;;5.72;;
54408;SDS011;40315;48.620;9.828;2023-08-17T12:06:08;6.55;;;5.95;;
54408;SDS011;40315;48.620;9.828;2023-08-17T12:08:35;6.78;;;6.18;;
54408;SDS011;40315;48.620;9.828;2023-08-17T12:11:02;6.72;;;5.93;;
54408;SDS011;40315;48.620;9.828;2023-08-17T12:13:30;6.78;;;5.88;;
54408;SDS011;40315;48.620;9.828;2023-08-17T12:15:58;6.80;;;6.10;;
54408;SDS011;40315;48.620;9.828;2023-08-17T12:18:27;7.05;;;5.97;;
54408;SDS011;40315;48.620;9.828;2023-08-17T12:20:54;7.65;;;6.85;;
54408;SDS011;40315;48.620;9.828;2023-08-17T12:23:21;6.97;;;6.28;;
54408;SDS011;40315;48.620;9.828;2023-08-17T12:25:52;7.53;;;6.82;;
54408;SDS011;40315;48.620;9.828;2023-08-17T12:28:22;8.90;;;6.13;;
54408;SDS011;40315;48.620;9.828;2023-08-17T12:30:56;7.70;;;6.90;;
54408;SDS011;40315;48.620;9.828;2023-08-17T12:33:24;8.02;;;7.22;;
54408;SDS011;40315;48.620;9.828;2023-08-17T12:35:55;7.75;;;7.05;;
54408;SDS011;40315;48.620;9.828;2023-08-17T12:38:25;7.40;;;6.57;;
54408;SDS011;40315;48.620;9.828;2023-08-17T12:40:52;7.28;;;6.57;;
54408;SDS011;40315;48.620;9.828;2023-08-17T12:43:19;7.50;;;6.85;;
54408;SDS011;40315;48.620;9.828;2023-08-17T12:45:49;8.32;;;6.78;;
54408;SDS011;40315;48.620;9.828;2023-08-17T12:48:16;7.43;;;6.72;;
54408;SDS011;40315;48.620;9.828;2023-08-17T12:50:43;7.30;;;6.63;;
54408;SDS011;40315;48.620;9.828;2023-08-17T12:53:11;7.00;;;6.43;;
54408;SDS011;40315;48.620;9.828;2023-08-17T12:55:38;7.88;;;7.07;;
54408;SDS011;40315;48.620;9.828;2023-08-17T12:58:07;8.02;;;7.28;;
54408;SDS011;40315;48.620;9.828;2023-08-17T13:00:34;9.40;;;6.18;;
54408;SDS011;40315;48.620;9.828;2023-08-17T13:03:01;7.82;;;7.13;;
54408;SDS011;40315;48.620;9.828;2023-08-17T13:05:29;7.60;;;6.90;;
54408;SDS011;40315;48.620;9.828;2023-08-17T13:07:56;7.25;;;6.35;;
54408;SDS011;40315;48.620;9.828;2023-08-17T13:10:24;7.85;;;6.93;;
54408;SDS011;40315;48.620;9.828;2023-08-17T13:12:51;7.05;;;6.45;;
54408;SDS011;40315;48.620;9.828;2023-08-17T13:15:20;7.35;;;6.75;;
54408;SDS011;40315;48.620;9.828;2023-08-17T13:17:47;7.75;;;6.90;;
54408;SDS011;40315;48.620;9.828;2023-08-17T13:20:16;8.82;;;6.53;;
54408;SDS011;40315;48.620;9.828;2023-08-17T13:22:43;9.93;;;7.45;;
54408;SDS011;40315;48.620;9.828;2023-08-17T13:25:10;8.40;;;7.47;;
54408;SDS011;40315;48.620;9.828;2023-08-17T13:27:39;10.15;;;7.75;;
54408;SDS011;40315;48.620;9.828;2023-08-17T13:30:08;8.05;;;6.85;;
54408;SDS011;40315;48.620;9.828;2023-08-17T13:32:36;10.80;;;7.57;;
54408;SDS011;40315;48.620;9.828;2023-08-17T13:35:06;9.32;;;7.20;;
54408;SDS011;40315;48.620;9.828;2023-08-17T13:37:33;10.32;;;7.15;;
54408;SDS011;40315;48.620;9.828;2023-08-17T13:40:02;8.23;;;6.20;;
54408;SDS011;40315;48.620;9.828;2023-08-17T13:42:30;8.80;;;6.25;;
54408;SDS011;40315;48.620;9.828;2023-08-17T13:45:00;8.35;;;5.63;;
54408;SDS011;40315;48.620;9.828;2023-08-17T13:47:28;6.82;;;6.13;;
54408;SDS011;40315;48.620;9.828;2023-08-17T13:49:55;8.20;;;6.68;;
54408;SDS011;40315;48.620;9.828;2023-08-17T13:52:24;8.23;;;5.97;;
54408;SDS011;40315;48.620;9.828;2023-08-17T13:54:51;6.00;;;5.03;;
54408;SDS011;40315;48.620;9.828;2023-08-17T13:57:18;8.65;;;5.57;;
54408;SDS011;40315;48.620;9.828;2023-08-17T13:59:47;7.30;;;5.82;;
54408;SDS011;40315;48.620;9.828;2023-08-17T14:02:19;5.82;;;5.03;;
54408;SDS011;40315;48.620;9.828;2023-08-17T14:04:46;6.90;;;5.97;;
54408;SDS011;40315;48.620;9.828;2023-08-17T14:07:13;7.57;;;5.72;;
54408;SDS011;40315;48.620;9.828;2023-08-17T14:09:40;9.85;;;6.10;;
54408;SDS011;40315;48.620;9.828;2023-08-17T14:12:07;8.75;;;5.90;;
54408;SDS011;40315;48.620;9.828;2023-08-17T14:14:37;9.32;;;6.15;;
54408;SDS011;40315;48.620;9.828;2023-08-17T14:17:04;6.40;;;5.72;;
54408;SDS011;40315;48.620;9.828;2023-08-17T14:19:32;8.93;;;6.63;;
54408;SDS011;40315;48.620;9.828;2023-08-17T14:21:59;7.22;;;6.53;;
54408;SDS011;40315;48.620;9.828;2023-08-17T14:24:26;6.57;;;5.68;;
54408;SDS011;40315;48.620;9.828;2023-08-17T14:26:53;7.47;;;5.78;;
54408;SDS011;40315;48.620;9.828;2023-08-17T14:29:24;6.63;;;5.25;;
54408;SDS011;40315;48.620;9.828;2023-08-17T14:31:51;9.60;;;6.05;;
54408;SDS011;40315;48.620;9.828;2023-08-17T14:34:20;9.00;;;6.05;;
54408;SDS011;40315;48.620;9.828;2023-08-17T14:36:49;6.07;;;5.47;;
54408;SDS011;40315;48.620;9.828;2023-08-17T14:39:16;6.28;;;5.40;;
54408;SDS011;40315;48.620;9.828;2023-08-17T14:41:45;9.25;;;6.10;;
54408;SDS011;40315;48.620;9.828;2023-08-17T14:44:16;6.15;;;5.55;;
54408;SDS011;40315;48.620;9.828;2023-08-17T14:46:46;8.02;;;6.03;;
54408;SDS011;40315;48.620;9.828;2023-08-17T14:49:13;8.55;;;5.78;;
54408;SDS011;40315;48.620;9.828;2023-08-17T14:51:40;7.80;;;6.13;;
54408;SDS011;40315;48.620;9.828;2023-08-17T14:54:11;7.55;;;5.90;;
54408;SDS011;40315;48.620;9.828;2023-08-17T14:56:38;6.85;;;5.70;;
54408;SDS011;40315;48.620;9.828;2023-08-17T14:59:05;6.72;;;6.05;;
54408;SDS011;40315;48.620;9.828;2023-08-17T15:01:32;8.80;;;6.15;;